Terminal Aerodrome Forecast
Issued by NWS Brownsville, TX

Home | Current Version | Previous Version | Text Only | Print | Product List | Glossary On
Versions: 1 2 3 4 5 6 7 8 9 10 11 12 13 14 15 16
000
FTUS44 KBRO 260500
TAFHRL
TAF
KHRL 260520Z 2606/2706 16012KT P6SM OVC035
     FM261600 17015G22KT P6SM SCT025 BKN040
     FM261900 19022G28KT P6SM OVC050
     FM262300 16018G22KT P6SM SCT050 BKN200
     FM270200 15012KT P6SM OVC050=

USA.gov is the U.S. government's official web portal to all federal, state and local government web resources and services.